Time;durP1;ratioP1;P1;durP2;ratioP2;P2;SDS_P1;SDS_P2;PMS_P1;PMS_P2;Temp;Humidity;BMP_temperature;BMP_pressure;BME280_temperature;BME280_humidity;BME280_pressure;Samples;Min_cycle;Max_cycle;Signal;HPM_P1;HPM_P2
2022/10/08 00:01:01;;;;;;;8.95;1.60;;;;;;;12.61;100.00;101685.75;5047840;28;20028;-61
2022/10/08 00:03:29;;;;;;;7.30;1.67;;;;;;;12.56;100.00;101687.69;5048748;28;20383;-62
2022/10/08 00:06:10;;;;;;;6.50;1.92;;;;;;;12.59;100.00;101687.59;5048294;28;20032;-62
2022/10/08 00:08:37;;;;;;;6.35;1.70;;;;;;;12.60;100.00;101691.97;5047508;28;20111;-61
2022/10/08 00:11:12;;;;;;;8.10;1.63;;;;;;;12.58;100.00;101688.50;5047779;28;20032;-60
2022/10/08 00:13:39;;;;;;;10.40;2.00;;;;;;;12.58;100.00;101688.50;5047283;28;20447;-61
2022/10/08 00:16:18;;;;;;;4.72;1.73;;;;;;;12.57;100.00;101696.47;5047099;28;20025;-61
2022/10/08 00:18:45;;;;;;;6.50;1.67;;;;;;;12.64;100.00;101695.38;5047527;28;20454;-61
2022/10/08 00:21:16;;;;;;;12.68;2.17;;;;;;;12.64;100.00;101693.63;5048059;28;20111;-61
2022/10/08 00:23:46;;;;;;;8.13;1.45;;;;;;;12.62;100.00;101689.28;5047566;28;20040;-61
2022/10/08 00:26:11;;;;;;;8.05;2.05;;;;;;;12.63;100.00;101691.88;5047481;28;20056;-61
2022/10/08 00:28:37;;;;;;;7.90;1.67;;;;;;;12.67;100.00;101697.09;5047995;28;20062;-62
2022/10/08 00:31:08;;;;;;;8.93;1.88;;;;;;;12.68;100.00;101699.69;5046159;28;20025;-59
2022/10/08 00:33:37;;;;;;;8.10;1.83;;;;;;;12.71;100.00;101699.59;5048482;28;20021;-60
2022/10/08 00:36:03;;;;;;;12.05;2.15;;;;;;;12.71;100.00;101704.00;5047719;28;20033;-62
2022/10/08 00:38:29;;;;;;;8.98;1.75;;;;;;;12.72;100.00;101695.16;5050091;28;20017;-60
2022/10/08 00:40:54;;;;;;;7.65;1.67;;;;;;;12.74;100.00;101694.19;5051485;28;20403;-60
2022/10/08 00:43:44;;;;;;;6.25;2.38;;;;;;;12.77;100.00;101706.50;5039608;28;20112;-61
2022/10/08 00:46:25;;;;;;;9.18;2.20;;;;;;;12.77;100.00;101714.41;5025388;28;20046;-60
2022/10/08 00:49:26;;;;;;;10.30;1.83;;;;;;;12.82;100.00;101715.13;5030540;28;20025;-61
2022/10/08 00:51:53;;;;;;;6.75;2.00;;;;;;;12.81;100.00;101716.06;5006007;28;20034;-59
2022/10/08 00:54:20;;;;;;;8.02;2.45;;;;;;;12.83;100.00;101711.59;5022660;28;20044;-61
2022/10/08 00:56:53;;;;;;;6.72;2.28;;;;;;;12.83;100.00;101708.97;5030479;28;20041;-61
2022/10/08 00:59:19;;;;;;;11.25;2.10;;;;;;;12.83;100.00;101708.97;5041513;28;20032;-61
2022/10/08 01:01:45;;;;;;;7.68;2.20;;;;;;;12.82;100.00;101701.91;5050174;28;20563;-60
2022/10/08 01:04:11;;;;;;;9.98;2.90;;;;;;;12.80;100.00;101698.47;5051306;28;20111;-61
2022/10/08 01:06:44;;;;;;;10.60;2.20;;;;;;;12.77;100.00;101706.50;5051599;28;20099;-61
2022/10/08 01:09:17;;;;;;;10.88;2.40;;;;;;;12.76;100.00;101702.09;5048606;28;20029;-60
2022/10/08 01:11:57;;;;;;;7.82;2.83;;;;;;;12.71;100.00;101704.91;5050260;28;20390;-61
2022/10/08 01:14:40;;;;;;;4.93;2.13;;;;;;;12.70;100.00;101697.00;5050158;28;20113;-61
2022/10/08 01:17:26;;;;;;;12.15;2.78;;;;;;;12.69;100.00;101704.06;5033281;28;20052;-61
2022/10/08 01:19:51;;;;;;;9.73;2.47;;;;;;;12.71;100.00;101696.09;5031915;28;20032;-61
2022/10/08 01:22:31;;;;;;;10.10;2.80;;;;;;;12.68;100.00;101701.47;5031299;28;20021;-60
2022/10/08 01:25:31;;;;;;;7.22;2.83;;;;;;;12.69;100.00;101700.53;5031489;28;20026;-60
2022/10/08 01:28:08;;;;;;;7.82;2.20;;;;;;;12.63;100.00;101697.19;5030912;28;20034;-60
2022/10/08 01:30:37;;;;;;;9.88;2.40;;;;;;;12.59;100.00;101698.19;5030875;28;20504;-60
2022/10/08 01:33:11;;;;;;;;;;;;;;;12.59;100.00;101695.53;5030192;28;20075;-60
2022/10/08 01:35:38;;;;;;;10.25;2.42;;;;;;;12.63;100.00;101697.19;5050364;28;19935;-61
2022/10/08 01:38:05;;;;;;;12.00;2.25;;;;;;;12.67;100.00;101694.44;5051181;28;20553;-60
2022/10/08 01:40:34;;;;;;;7.80;2.40;;;;;;;12.67;100.00;101702.38;5050184;28;20033;-60
2022/10/08 01:43:00;;;;;;;11.53;2.50;;;;;;;12.63;100.00;101702.47;5048677;28;20032;-60
2022/10/08 01:45:31;;;;;;;8.50;2.55;;;;;;;12.58;100.00;101704.34;5049521;28;20118;-60
2022/10/08 01:47:58;;;;;;;8.95;2.47;;;;;;;12.49;100.00;101702.84;5050089;28;20124;-59
2022/10/08 01:50:28;;;;;;;9.25;2.30;;;;;;;12.38;100.00;101708.41;5049008;28;20040;-61
2022/10/08 01:52:57;;;;;;;16.42;3.92;;;;;;;12.31;100.00;101709.50;5051272;28;20074;-61
2022/10/08 01:55:30;;;;;;;12.45;2.45;;;;;;;12.25;100.00;101705.25;5049297;28;20037;-61
2022/10/08 01:58:02;;;;;;;8.82;2.72;;;;;;;12.11;100.00;101708.28;5049776;28;20475;-61
2022/10/08 02:00:28;;;;;;;11.10;2.58;;;;;;;12.07;100.00;101706.63;5050781;28;20356;-60
2022/10/08 02:02:53;;;;;;;12.65;2.30;;;;;;;12.04;100.00;101711.09;5048796;28;20059;-61
2022/10/08 02:05:21;;;;;;;11.80;2.33;;;;;;;12.00;100.00;101716.44;5049428;28;20029;-60
2022/10/08 02:07:48;;;;;;;16.75;2.63;;;;;;;11.95;100.00;101715.69;5048859;28;20017;-61
2022/10/08 02:10:17;;;;;;;20.25;2.60;;;;;;;11.92;100.00;101718.41;5050002;28;20028;-61
2022/10/08 02:12:43;;;;;;;10.48;2.50;;;;;;;11.90;100.00;101716.72;5050260;28;20029;-61
2022/10/08 02:15:21;;;;;;;10.63;2.45;;;;;;;11.85;100.00;101714.19;5048966;28;20040;-61
2022/10/08 02:17:52;;;;;;;10.65;2.63;;;;;;;11.80;100.00;101716.09;5050242;28;20025;-61
2022/10/08 02:20:28;;;;;;;7.10;2.20;;;;;;;11.77;100.00;101719.66;5049320;28;20035;-60
2022/10/08 02:23:17;;;;;;;14.57;2.58;;;;;;;11.76;100.00;101715.28;5048668;28;20487;-60
2022/10/08 02:25:49;;;;;;;13.38;2.33;;;;;;;11.74;100.00;101717.13;5048615;28;20033;-60
2022/10/08 02:28:26;;;;;;;13.93;2.53;;;;;;;11.70;100.00;101720.72;5048857;28;20029;-61
2022/10/08 02:31:04;;;;;;;9.73;2.28;;;;;;;11.67;100.00;101712.88;5042534;28;20851;-60
2022/10/08 02:33:33;;;;;;;22.45;2.72;;;;;;;11.68;100.00;101722.56;5028897;28;20022;-61
2022/10/08 02:35:59;;;;;;;15.18;2.83;;;;;;;11.68;100.00;101723.41;5036723;28;20039;-59
2022/10/08 02:38:34;;;;;;;13.90;2.80;;;;;;;11.65;100.00;101723.47;5051845;28;20020;-61
2022/10/08 02:41:01;;;;;;;14.52;2.85;;;;;;;11.66;100.00;101726.97;5063095;28;20024;-62
2022/10/08 02:43:30;;;;;;;15.07;2.53;;;;;;;11.72;100.00;101721.56;5048810;28;20041;-60
2022/10/08 02:46:00;;;;;;;16.25;2.33;;;;;;;11.78;100.00;101728.47;5047075;28;20527;-61
2022/10/08 02:48:30;;;;;;;13.65;2.30;;;;;;;11.72;100.00;101729.47;5065133;28;20067;-60
2022/10/08 02:50:56;;;;;;;14.93;3.17;;;;;;;11.65;100.00;101722.63;5048550;28;20083;-60
2022/10/08 02:53:23;;;;;;;15.48;2.60;;;;;;;11.61;100.00;101727.09;5046851;28;20025;-60
2022/10/08 02:56:01;;;;;;;13.73;2.47;;;;;;;11.53;100.00;101729.06;5045794;28;20033;-61
2022/10/08 02:58:27;;;;;;;8.40;2.30;;;;;;;11.45;100.00;101734.50;5046765;28;20025;-61
2022/10/08 03:00:57;;;;;;;7.55;2.17;;;;;;;11.41;100.00;101735.50;5048533;28;20029;-60
2022/10/08 03:03:31;;;;;;;16.40;2.88;;;;;;;11.36;100.00;101738.22;5047983;28;20017;-60
2022/10/08 03:06:01;;;;;;;16.88;2.67;;;;;;;11.28;100.00;101743.69;5048307;28;20086;-61
2022/10/08 03:08:26;;;;;;;;;;;;;;;11.23;100.00;101751.69;5046973;28;20029;-60
2022/10/08 03:10:52;;;;;;;18.60;2.78;;;;;;;11.18;100.00;101752.69;5047930;28;20041;-60
2022/10/08 03:13:18;;;;;;;18.20;2.80;;;;;;;11.11;100.00;101755.47;5047754;28;20055;-62
2022/10/08 03:15:43;;;;;;;15.55;3.42;;;;;;;11.07;100.00;101759.06;5047945;28;20518;-61
2022/10/08 03:18:10;;;;;;;13.18;2.13;;;;;;;11.05;100.00;101758.22;5063975;28;20044;-60
2022/10/08 03:20:43;;;;;;;6.97;2.22;;;;;;;11.08;100.00;101755.53;5047528;28;20029;-61
2022/10/08 03:23:09;;;;;;;9.30;2.30;;;;;;;11.12;100.00;101762.50;5048287;28;20571;-61
2022/10/08 03:25:34;;;;;;;11.38;2.58;;;;;;;11.12;100.00;101767.78;5048644;28;20120;-61
2022/10/08 03:27:59;;;;;;;15.77;2.55;;;;;;;11.16;100.00;101772.94;5048227;28;20025;-61
2022/10/08 03:30:25;;;;;;;10.63;2.42;;;;;;;11.25;100.00;101767.50;5048200;28;20403;-61
2022/10/08 03:32:50;;;;;;;13.77;2.22;;;;;;;11.30;100.00;101765.63;5048774;28;20513;-61
2022/10/08 03:35:15;;;;;;;12.23;2.78;;;;;;;11.28;100.00;101770.06;5037083;28;20120;-60
2022/10/08 03:37:41;;;;;;;14.73;2.58;;;;;;;11.28;100.00;101780.63;5028645;28;20195;-61
2022/10/08 03:40:07;;;;;;;15.88;2.63;;;;;;;11.27;100.00;101775.38;5035438;28;20033;-61
2022/10/08 03:42:32;;;;;;;10.23;2.15;;;;;;;11.22;100.00;101783.38;5048071;28;20021;-61
2022/10/08 03:45:00;;;;;;;9.93;2.10;;;;;;;11.18;100.00;101777.31;5045577;28;20045;-61
2022/10/08 03:47:25;;;;;;;13.10;2.55;;;;;;;11.09;100.00;101781.03;5048740;28;20507;-61
2022/10/08 03:49:51;;;;;;;14.27;2.28;;;;;;;11.07;100.00;101785.44;5047656;28;20061;-61
2022/10/08 03:52:16;;;;;;;12.18;2.33;;;;;;;11.06;100.00;101783.72;5048290;28;20018;-60
2022/10/08 03:54:41;;;;;;;19.95;2.75;;;;;;;11.15;100.00;101792.31;5047762;28;20044;-62
2022/10/08 03:57:07;;;;;;;15.95;2.78;;;;;;;11.21;100.00;101795.72;5047033;28;20028;-61
2022/10/08 03:59:32;;;;;;;12.20;2.45;;;;;;;11.19;100.00;101794.00;5047450;28;20033;-61
2022/10/08 04:01:57;;;;;;;18.40;2.90;;;;;;;11.15;100.00;101795.84;5047506;28;20167;-61
2022/10/08 04:04:23;;;;;;;14.85;2.72;;;;;;;11.10;100.00;101800.34;5047963;28;20068;-61
2022/10/08 04:06:48;;;;;;;14.48;2.58;;;;;;;11.05;100.00;101797.78;5046930;28;20077;-58
2022/10/08 04:09:13;;;;;;;15.38;2.25;;;;;;;11.02;100.00;101802.28;5048362;28;20128;-59
2022/10/08 04:11:39;;;;;;;11.50;2.13;;;;;;;10.98;100.00;101804.09;5045898;28;20028;-60
2022/10/08 04:14:04;;;;;;;13.70;2.55;;;;;;;10.96;100.00;101804.13;5046071;28;20029;-60
2022/10/08 04:16:30;;;;;;;11.13;2.45;;;;;;;10.92;100.00;101806.84;5044559;28;20025;-60
2022/10/08 04:18:55;;;;;;;14.25;2.72;;;;;;;10.88;100.00;101806.06;5052176;28;20083;-60
2022/10/08 04:21:20;;;;;;;17.52;2.13;;;;;;;10.81;100.00;101813.19;5048511;28;20021;-61
2022/10/08 04:23:48;;;;;;;13.50;2.63;;;;;;;10.76;100.00;101817.69;5048233;28;20508;-61
2022/10/08 04:26:14;;;;;;;11.18;2.17;;;;;;;10.74;100.00;101814.22;5047080;28;20086;-60
2022/10/08 04:28:41;;;;;;;16.17;3.13;;;;;;;10.70;100.00;101823.97;5045446;28;20472;-61
2022/10/08 04:31:09;;;;;;;14.98;2.40;;;;;;;10.69;100.00;101822.22;5045732;28;20543;-62
2022/10/08 04:33:35;;;;;;;13.50;2.47;;;;;;;10.73;100.00;101823.03;5041029;28;20025;-61
2022/10/08 04:36:06;;;;;;;11.43;2.38;;;;;;;10.69;100.00;101827.47;5046876;28;20041;-60
2022/10/08 04:38:31;;;;;;;13.70;2.20;;;;;;;10.64;100.00;101828.47;5047843;28;20464;-60
2022/10/08 04:41:22;;;;;;;15.82;2.92;;;;;;;10.60;100.00;101828.53;5046392;28;20025;-60
2022/10/08 04:43:47;;;;;;;8.23;2.10;;;;;;;10.55;100.00;101834.78;5040939;28;20403;-64
2022/10/08 04:46:15;;;;;;;14.93;2.15;;;;;;;10.54;100.00;101823.34;5039532;28;20048;-61
2022/10/08 04:48:48;;;;;;;15.55;2.30;;;;;;;10.52;100.00;101829.56;5042532;28;20098;-60
2022/10/08 04:51:14;;;;;;;9.30;2.30;;;;;;;10.55;100.00;101834.78;5045354;28;20628;-61
2022/10/08 04:53:39;;;;;;;11.85;1.80;;;;;;;10.55;100.00;101830.38;5048043;28;20031;-62
2022/10/08 04:56:11;;;;;;;5.03;1.30;;;;;;;10.53;100.00;101834.81;5046037;28;20056;-60
2022/10/08 04:58:36;;;;;;;8.75;1.80;;;;;;;10.53;100.00;101840.06;5041218;28;20034;-61
2022/10/08 05:01:07;;;;;;;14.02;1.90;;;;;;;10.51;100.00;101839.25;5037757;28;20022;-60
2022/10/08 05:03:39;;;;;;;9.38;1.80;;;;;;;10.49;100.00;101848.94;5045464;28;20021;-61
2022/10/08 05:06:06;;;;;;;7.07;1.40;;;;;;;10.46;100.00;101841.97;5046338;28;20112;-62
2022/10/08 05:08:31;;;;;;;12.60;1.83;;;;;;;10.41;100.00;101842.91;5046404;28;20028;-60
2022/10/08 05:10:57;;;;;;;9.98;1.60;;;;;;;10.34;100.00;101847.41;5046944;28;20017;-59
2022/10/08 05:13:22;;;;;;;9.05;1.83;;;;;;;10.26;100.00;101850.16;5046042;28;20025;-66
2022/10/08 05:15:48;;;;;;;11.45;1.50;;;;;;;10.18;100.00;101858.16;5046262;28;20411;-62
2022/10/08 05:18:13;;;;;;;8.15;1.77;;;;;;;10.19;100.00;101864.31;5047581;28;20025;-60
2022/10/08 05:20:39;;;;;;;7.30;2.00;;;;;;;10.18;100.00;101865.22;5046883;28;20028;-60
2022/10/08 05:23:04;;;;;;;9.70;1.50;;;;;;;10.19;100.00;101862.56;5048119;28;20033;-60
2022/10/08 05:25:30;;;;;;;10.73;1.60;;;;;;;10.22;100.00;101862.53;5050025;28;20039;-62
2022/10/08 05:27:56;;;;;;;8.85;1.65;;;;;;;10.22;100.00;101867.78;5050668;28;20124;-61
2022/10/08 05:30:22;;;;;;;8.48;1.25;;;;;;;10.28;100.00;101871.19;5050057;28;20112;-61
2022/10/08 05:32:47;;;;;;;10.50;1.70;;;;;;;10.26;100.00;101875.66;5051928;28;20090;-62
2022/10/08 05:35:12;;;;;;;10.43;1.77;;;;;;;10.27;100.00;101877.38;5049377;28;20033;-61
2022/10/08 05:37:38;;;;;;;15.35;1.73;;;;;;;10.25;100.00;101880.03;5051696;28;20025;-61
2022/10/08 05:40:03;;;;;;;11.98;1.73;;;;;;;10.23;100.00;101881.81;5032243;28;20387;-61
2022/10/08 05:42:29;;;;;;;10.38;1.98;;;;;;;10.28;100.00;101887.88;5050538;28;20029;-61
2022/10/08 05:44:54;;;;;;;6.95;1.58;;;;;;;10.29;100.00;101892.25;5049986;28;20483;-63
2022/10/08 05:47:19;;;;;;;6.15;1.42;;;;;;;10.29;100.00;101894.88;5051403;28;20424;-61
2022/10/08 05:49:45;;;;;;;14.38;2.50;;;;;;;10.27;100.00;101893.19;5050290;28;20040;-61
2022/10/08 05:52:10;;;;;;;9.80;1.80;;;;;;;10.29;100.00;101900.16;5051122;28;20471;-61
2022/10/08 05:54:35;;;;;;;9.80;1.60;;;;;;;10.30;100.00;101906.31;5050041;28;20067;-61
2022/10/08 05:57:01;;;;;;;7.72;1.77;;;;;;;10.36;100.00;101909.69;5050773;28;20467;-61
2022/10/08 05:59:26;;;;;;;5.15;1.20;;;;;;;10.38;100.00;101911.47;5050306;28;20025;-61
2022/10/08 06:01:51;;;;;;;6.32;1.58;;;;;;;10.37;100.00;101918.47;5041897;28;20155;-62
2022/10/08 06:04:17;;;;;;;5.70;1.48;;;;;;;10.39;100.00;101921.09;5049883;28;20067;-60
2022/10/08 06:06:43;;;;;;;7.40;1.50;;;;;;;10.40;100.00;101928.97;5049628;28;20487;-60
2022/10/08 06:09:14;;;;;;;7.57;1.23;;;;;;;10.41;100.00;101940.41;5050445;28;20029;-60
2022/10/08 06:11:41;;;;;;;8.10;1.50;;;;;;;10.46;100.00;101942.09;5046141;28;20029;-61
2022/10/08 06:14:09;;;;;;;6.65;1.50;;;;;;;10.56;100.00;101948.06;5037957;28;20032;-61
2022/10/08 06:16:34;;;;;;;6.15;1.08;;;;;;;10.71;100.00;101952.22;5048403;28;20021;-61
2022/10/08 06:19:01;;;;;;;10.88;1.77;;;;;;;10.87;100.00;101944.91;5041459;28;20033;-61
2022/10/08 06:21:28;;;;;;;8.25;1.42;;;;;;;10.99;100.00;101958.81;5045499;28;20020;-61
2022/10/08 06:23:56;;;;;;;7.47;1.42;;;;;;;11.09;100.00;101952.47;5046203;28;20025;-62
2022/10/08 06:26:24;;;;;;;10.52;1.95;;;;;;;11.11;100.00;101961.22;5048046;28;20111;-60
2022/10/08 06:28:50;;;;;;;10.15;1.40;;;;;;;11.10;100.00;101967.38;5047511;28;20028;-61
2022/10/08 06:31:15;;;;;;;5.65;1.40;;;;;;;11.07;100.00;101974.47;5043582;28;20029;-62
2022/10/08 06:33:41;;;;;;;7.15;1.30;;;;;;;11.08;100.00;101978.88;5038029;28;20049;-59
2022/10/08 06:36:13;;;;;;;4.18;1.23;;;;;;;11.09;100.00;101981.47;5042376;28;20936;-60
2022/10/08 06:38:39;;;;;;;9.38;1.48;;;;;;;11.14;100.00;101985.81;5038867;28;20032;-61
2022/10/08 06:41:04;;;;;;;9.35;1.58;;;;;;;11.18;100.00;101990.13;5047200;28;20026;-62
2022/10/08 06:43:30;;;;;;;7.35;1.45;;;;;;;11.21;100.00;101998.84;5048818;28;20025;-61
2022/10/08 06:45:55;;;;;;;3.88;1.27;;;;;;;11.28;100.00;102004.00;5048621;28;20677;-62
2022/10/08 06:48:21;;;;;;;8.80;1.60;;;;;;;11.32;100.00;102003.06;5049039;28;20017;-62
2022/10/08 06:50:46;;;;;;;5.30;1.40;;;;;;;11.38;100.00;102006.44;5049253;28;20123;-59
2022/10/08 06:53:11;;;;;;;8.25;1.48;;;;;;;11.44;100.00;102012.53;5045277;28;20028;-59
2022/10/08 06:55:37;;;;;;;5.60;2.08;;;;;;;11.44;100.00;102016.03;5048073;28;20035;-61
2022/10/08 06:58:04;;;;;;;8.50;1.60;;;;;;;11.48;100.00;102019.47;5045488;28;20021;-60
2022/10/08 07:00:29;;;;;;;7.05;1.45;;;;;;;11.49;100.00;102019.47;5040376;28;20120;-62
2022/10/08 07:02:56;;;;;;;11.32;1.92;;;;;;;11.56;100.00;102024.63;5038290;28;20021;-62
2022/10/08 07:05:21;;;;;;;9.65;1.60;;;;;;;11.60;100.00;102024.53;5039933;28;20029;-62
2022/10/08 07:07:47;;;;;;;6.47;1.10;;;;;;;11.63;100.00;102032.38;5039507;28;20075;-62
2022/10/08 07:10:12;;;;;;;6.50;1.35;;;;;;;11.70;100.00;102032.25;5045730;28;20021;-61
2022/10/08 07:12:37;;;;;;;7.78;1.58;;;;;;;11.72;100.00;102030.47;5046380;28;20021;-58
2022/10/08 07:15:03;;;;;;;8.40;1.52;;;;;;;11.78;100.00;102034.75;5043398;28;20032;-60
2022/10/08 07:17:29;;;;;;;9.02;2.00;;;;;;;11.82;100.00;102039.94;5038442;28;20059;-60
2022/10/08 07:19:55;;;;;;;9.23;1.70;;;;;;;11.90;100.00;102042.44;5038525;28;20025;-60
2022/10/08 07:22:21;;;;;;;4.15;1.10;;;;;;;11.98;99.57;102043.16;5043252;28;20461;-59
2022/10/08 07:24:46;;;;;;;7.03;1.20;;;;;;;12.07;99.07;102049.19;5042844;28;20124;-60
2022/10/08 07:27:11;;;;;;;4.55;1.05;;;;;;;12.09;98.76;102056.16;5045985;28;20028;-62
2022/10/08 07:29:37;;;;;;;7.68;1.60;;;;;;;12.20;98.13;102061.25;5046968;28;20029;-61
2022/10/08 07:32:02;;;;;;;7.97;1.33;;;;;;;12.24;98.37;102062.03;5047410;28;20044;-61
2022/10/08 07:34:28;;;;;;;9.60;1.60;;;;;;;12.30;97.69;102059.25;5047437;28;20035;-60
2022/10/08 07:36:53;;;;;;;6.55;1.65;;;;;;;12.35;98.17;102067.09;5046744;28;20033;-60
2022/10/08 07:39:19;;;;;;;5.55;1.10;;;;;;;12.42;98.29;102067.81;5030226;28;20032;-60
2022/10/08 07:41:44;;;;;;;13.05;1.55;;;;;;;12.48;96.98;102078.25;5026589;28;20083;-61
2022/10/08 07:44:10;;;;;;;7.85;1.60;;;;;;;12.58;96.50;102087.72;5028065;28;20033;-64
2022/10/08 07:46:42;;;;;;;8.82;1.98;;;;;;;12.64;96.59;102092.88;5034097;28;20036;-63
2022/10/08 07:49:07;;;;;;;10.98;1.77;;;;;;;12.64;96.46;102092.88;5047422;28;20029;-61
2022/10/08 07:51:33;;;;;;;10.50;1.60;;;;;;;12.67;96.44;102105.16;5038249;28;20021;-64
2022/10/08 07:53:59;;;;;;;6.68;1.35;;;;;;;12.72;96.38;102107.69;5047397;28;20078;-65
2022/10/08 07:56:25;;;;;;;6.88;1.40;;;;;;;12.73;96.29;102102.38;5044480;28;20492;-65
2022/10/08 07:58:50;;;;;;;8.98;1.80;;;;;;;12.85;95.98;102114.44;5047812;28;20059;-63
2022/10/08 08:01:21;;;;;;;9.60;1.38;;;;;;;12.95;95.49;102111.59;5042784;28;20106;-64
2022/10/08 08:04:01;;;;;;;10.02;1.70;;;;;;;13.01;95.60;102122.03;5037621;28;20078;-64
2022/10/08 08:06:27;;;;;;;10.40;1.95;;;;;;;13.02;93.99;102111.41;5035360;28;20386;-67
2022/10/08 08:08:53;;;;;;;6.10;1.30;;;;;;;13.07;93.88;102121.91;5046441;28;20025;-63
2022/10/08 08:11:21;;;;;;;8.45;1.80;;;;;;;13.09;92.43;102128.00;5044428;28;20479;-62
2022/10/08 08:13:46;;;;;;;5.20;1.30;;;;;;;13.10;91.91;102129.72;5046607;28;20017;-61
2022/10/08 08:16:14;;;;;;;9.98;2.00;;;;;;;13.16;93.03;102138.44;5046300;28;20082;-64
2022/10/08 08:18:41;;;;;;;10.57;1.75;;;;;;;13.18;91.96;102137.50;5040418;28;20025;-61
2022/10/08 08:21:12;;;;;;;7.00;1.50;;;;;;;13.22;91.38;102148.88;5036324;28;20143;-63
2022/10/08 08:23:39;;;;;;;10.48;1.35;;;;;;;13.26;91.59;102140.84;5041603;28;20037;-65
2022/10/08 08:26:22;;;;;;;8.63;1.42;;;;;;;13.28;92.35;102146.09;5044278;28;20033;-63
2022/10/08 08:28:52;;;;;;;11.98;1.42;;;;;;;13.35;91.21;102152.97;5044950;28;20029;-63
2022/10/08 08:31:28;;;;;;;7.13;1.50;;;;;;;13.38;89.57;102154.69;5037062;28;20026;-60
2022/10/08 08:33:56;;;;;;;7.50;1.30;;;;;;;13.46;88.90;102154.50;5035671;28;20032;-62
2022/10/08 08:36:34;;;;;;;9.25;1.50;;;;;;;13.51;89.47;102173.78;5040607;28;20036;-63
2022/10/08 08:38:59;;;;;;;7.13;1.10;;;;;;;13.58;88.90;102179.81;5042548;28;20538;-65
2022/10/08 08:41:34;;;;;;;7.03;1.45;;;;;;;13.58;88.63;102185.97;5043232;28;20104;-64
2022/10/08 08:44:01;;;;;;;8.10;1.40;;;;;;;13.66;88.32;102185.78;5046235;28;20090;-63
2022/10/08 08:46:29;;;;;;;6.78;1.20;;;;;;;13.71;88.50;102197.16;5027538;28;20041;-63
2022/10/08 08:48:57;;;;;;;8.00;1.20;;;;;;;13.70;87.90;102184.78;5039033;28;20032;-62
2022/10/08 08:51:23;;;;;;;6.63;1.30;;;;;;;13.69;88.49;102190.16;5045994;28;20022;-63
2022/10/08 08:53:48;;;;;;;10.40;1.23;;;;;;;13.70;89.36;102191.88;5044848;28;20017;-62
2022/10/08 08:56:15;;;;;;;9.93;1.40;;;;;;;13.75;89.12;102187.31;5045427;28;20024;-61
2022/10/08 08:58:48;;;;;;;10.75;1.67;;;;;;;13.86;88.52;102198.53;5044998;28;20028;-62
2022/10/08 09:01:24;;;;;;;6.82;1.52;;;;;;;14.01;88.70;102196.38;5043786;28;20056;-64
2022/10/08 09:03:53;;;;;;;11.38;1.40;;;;;;;14.15;86.59;102201.31;5049811;28;20447;-62
2022/10/08 09:06:19;;;;;;;;;;;;;;;14.27;87.18;102208.91;5038702;28;20090;-60
2022/10/08 09:09:23;;;;;;;12.98;1.60;;;;;;;14.28;85.55;102218.63;5039448;28;19963;-63
2022/10/08 09:11:49;;;;;;;7.03;1.35;;;;;;;14.28;85.65;102223.06;5043607;28;20063;-61
2022/10/08 09:14:31;;;;;;;10.57;1.70;;;;;;;14.41;86.26;102215.63;5044224;28;20511;-60
2022/10/08 09:17:00;;;;;;;12.40;1.50;;;;;;;14.42;86.83;102220.00;5043566;28;20072;-63
2022/10/08 09:19:26;;;;;;;12.77;2.05;;;;;;;14.34;88.33;102222.88;5038935;28;20447;-64
2022/10/08 09:21:51;;;;;;;6.38;1.35;;;;;;;14.27;88.21;102223.97;5039134;28;20017;-64
2022/10/08 09:24:17;;;;;;;5.78;1.20;;;;;;;14.17;88.04;102230.44;5045100;28;20429;-62
2022/10/08 09:26:42;;;;;;;6.13;1.38;;;;;;;14.06;87.88;102239.50;5048202;28;20037;-62
2022/10/08 09:29:32;;;;;;;8.00;1.38;;;;;;;14.05;88.83;102243.09;5048891;28;20028;-62
2022/10/08 09:31:57;;;;;;;10.57;1.75;;;;;;;14.15;88.88;102252.53;5041402;28;20444;-62
2022/10/08 09:34:23;;;;;;;9.07;1.65;;;;;;;14.24;86.87;102235.50;5041309;28;20021;-63
2022/10/08 09:36:53;;;;;;;9.63;1.45;;;;;;;14.38;86.30;102251.06;5050004;28;20017;-64
2022/10/08 09:39:30;;;;;;;8.10;1.52;;;;;;;14.49;84.45;102260.50;5043652;28;20039;-62
2022/10/08 09:42:08;;;;;;;8.88;1.70;;;;;;;14.74;84.66;102252.72;5034706;28;20064;-63
2022/10/08 09:44:41;;;;;;;5.50;1.60;;;;;;;14.88;82.17;102254.13;5038038;28;20037;-64
2022/10/08 09:47:10;;;;;;;8.23;2.00;;;;;;;14.97;83.18;102252.97;5050284;28;20596;-62
2022/10/08 09:49:38;;;;;;;6.50;1.30;;;;;;;15.02;82.59;102254.56;5044708;28;20025;-60
2022/10/08 09:52:25;;;;;;;10.37;1.07;;;;;;;15.15;83.19;102260.38;5047971;28;20017;-61
2022/10/08 09:54:58;;;;;;;6.88;1.30;;;;;;;15.15;82.08;102286.91;5043038;28;20040;-63
2022/10/08 09:57:23;;;;;;;9.32;1.50;;;;;;;14.99;80.32;102275.91;5037463;28;20542;-61
2022/10/08 09:59:55;;;;;;;7.15;1.35;;;;;;;14.92;79.83;102258.41;5039016;28;20116;-63
2022/10/08 10:02:24;;;;;;;14.38;1.63;;;;;;;14.87;81.17;102282.44;5047169;28;20108;-63
2022/10/08 10:04:52;;;;;;;10.00;1.63;;;;;;;14.97;80.83;102276.88;5041678;28;20035;-62
2022/10/08 10:07:17;;;;;;;8.70;1.55;;;;;;;15.10;81.04;102272.94;5037276;28;20020;-62
2022/10/08 10:09:45;;;;;;;12.60;1.98;;;;;;;15.17;82.36;102278.91;5044530;28;20384;-62
2022/10/08 10:12:24;;;;;;;7.50;1.40;;;;;;;15.11;81.79;102284.44;5048647;28;20328;-63
2022/10/08 10:14:56;;;;;;;7.95;1.48;;;;;;;15.10;80.66;102280.00;5043110;28;20500;-62
2022/10/08 10:17:43;;;;;;;10.60;1.92;;;;;;;15.08;79.47;102288.03;5059610;28;20113;-62
2022/10/08 10:20:21;;;;;;;7.78;1.42;;;;;;;14.97;79.77;102284.81;5048640;28;20423;-60
2022/10/08 10:22:53;;;;;;;9.00;1.50;;;;;;;14.88;80.58;102289.50;5047701;28;20048;-63
2022/10/08 10:25:25;;;;;;;9.30;1.77;;;;;;;14.93;80.41;102286.69;5029925;28;20086;-62
2022/10/08 10:27:53;;;;;;;5.85;1.60;;;;;;;14.93;80.72;102291.16;5046902;28;20729;-62
2022/10/08 10:30:21;;;;;;;6.75;1.25;;;;;;;14.77;79.91;102296.84;5048928;28;20036;-63
2022/10/08 10:32:54;;;;;;;7.47;1.52;;;;;;;14.64;81.36;102296.34;5049203;28;20064;-62
2022/10/08 10:35:25;;;;;;;5.25;1.10;;;;;;;14.51;81.49;102309.06;5036046;28;20037;-63
2022/10/08 10:38:12;;;;;;;6.72;1.80;;;;;;;14.56;81.40;102304.50;5034646;28;20086;-62
2022/10/08 10:40:42;;;;;;;7.28;1.25;;;;;;;14.56;77.76;102314.22;5029490;28;20061;-62
2022/10/08 10:43:19;;;;;;;6.40;1.50;;;;;;;14.53;79.20;102310.75;5029602;28;20224;-63
2022/10/08 10:45:50;;;;;;;11.65;1.50;;;;;;;14.65;79.78;102308.66;5049871;28;20451;-61
2022/10/08 10:48:15;;;;;;;7.03;1.20;;;;;;;14.80;80.08;102320.69;5047388;28;20094;-62
2022/10/08 10:51:18;;;;;;;5.35;1.38;;;;;;;14.96;80.49;102312.28;5049761;28;20029;-64
2022/10/08 10:53:52;;;;;;;11.45;1.35;;;;;;;15.18;79.43;102309.00;5049138;28;20039;-62
2022/10/08 10:56:19;;;;;;;6.28;1.20;;;;;;;15.45;78.93;102317.03;5048331;28;20064;-62
2022/10/08 10:59:09;;;;;;;6.70;1.35;;;;;;;15.51;76.78;102322.16;5046555;28;20041;-63
2022/10/08 11:01:52;;;;;;;10.48;1.67;;;;;;;15.38;75.56;102319.88;5047910;28;20098;-62
2022/10/08 11:04:24;;;;;;;4.80;1.10;;;;;;;15.29;77.70;102328.13;5063178;28;20025;-63
2022/10/08 11:07:18;;;;;;;10.95;1.60;;;;;;;15.15;77.52;102340.00;5048212;28;20034;-63
2022/10/08 11:09:43;;;;;;;7.55;1.38;;;;;;;14.94;78.95;102338.00;5038856;28;20460;-61
2022/10/08 11:12:27;;;;;;;6.43;1.30;;;;;;;14.85;80.44;102336.47;5048545;28;20024;-63
2022/10/08 11:15:21;;;;;;;7.43;1.05;;;;;;;14.99;78.35;102341.41;5048058;28;20110;-63
2022/10/08 11:18:07;;;;;;;6.90;1.38;;;;;;;15.34;77.51;102342.13;5047346;28;20045;-62
2022/10/08 11:20:43;;;;;;;4.72;1.42;;;;;;;15.65;74.05;102342.97;5048260;28;20059;-64
2022/10/08 11:23:44;;;;;;;10.00;1.42;;;;;;;15.66;75.44;102340.25;5046502;28;20036;-63
2022/10/08 11:26:33;;;;;;;7.15;1.20;;;;;;;15.35;76.33;102335.91;5060522;28;20033;-60
2022/10/08 11:29:10;;;;;;;5.50;1.65;;;;;;;15.15;77.11;102341.81;5063545;28;20032;-61